Ana Sayfa
METAR-TAF:

METAR-TAF

Havaalanları :

Pratt Industrial Airport

Pratt, Kansas, Amerika Birleşik Devletleri

Enlem: 37-42N, Boylam: 098-45W, yükseklik: 595 m

Güncel hava durumu gözlemi

Rapor saat 03:50 UTC de 24 dakika önce yapıldı.
Rüzgar güneydan 14 kt ve 17 kt'a kadar ani rüzgarlar
Sıcaklık 23°C
Nem 50%
Basınç 1008 hPa
Görüş mesafesi: 16.1 km
Açık gökyüzü

METAR: KPTT 180350Z AUTO 17014G17KT 10SM CLR 23/12 A2977 RMK AO2 T02300123

Saat: 23:14 (04:14 UTC)


TAF: eksik

4.000'den fazla havaalanı için hava durumu gözlemleri ve tahminleri (METAR ve TAF raporları).

Kullanılabilir istasyonlar harita üzerinde sarı ve kırmızı noktalarla gösterilir.

İstasyonun adını görmek için fareyi noktanın üzerinde gezdirin.

Sonrasında hava gözlem ve tahminlerini görmek için tıklayın.

Haritayı değiştirmek için: yaklaştırmak için siyah artı işaretli yeşil düğmeye ve uzaklaştırmak için de eksi işaretli düğmeye hızla tıklayın; bitişik haritalar için yeşil okları kullanın.


METAR-TAF: